createdAt,value
2018-07-07T00:00:54.856Z,15.60
2018-07-07T00:03:24.832Z,15.60
2018-07-07T00:05:54.852Z,15.60
2018-07-07T00:08:24.824Z,15.60
2018-07-07T00:10:57.630Z,15.60
2018-07-07T00:13:27.665Z,15.50
2018-07-07T00:15:57.667Z,15.50
2018-07-07T00:18:27.633Z,15.40
2018-07-07T00:20:57.607Z,15.40
2018-07-07T00:23:27.608Z,15.40
2018-07-07T00:25:57.591Z,15.40
2018-07-07T00:28:27.556Z,15.30
2018-07-07T00:30:57.568Z,15.20
2018-07-07T00:33:27.540Z,15.20
2018-07-07T00:35:57.485Z,15.20
2018-07-07T00:38:27.416Z,15.10
2018-07-07T00:40:57.372Z,15.10
2018-07-07T00:43:27.354Z,15.10
2018-07-07T00:45:57.311Z,15.10
2018-07-07T00:48:27.240Z,15.10
2018-07-07T00:50:57.192Z,15.20
2018-07-07T00:53:27.138Z,15.10
2018-07-07T00:55:57.092Z,15.20
2018-07-07T00:58:27.119Z,15.20
2018-07-07T01:00:57.092Z,15.20
2018-07-07T01:03:27.027Z,15.20
2018-07-07T01:05:56.983Z,15.10
2018-07-07T01:08:26.921Z,15.00
2018-07-07T01:10:56.873Z,15.00
2018-07-07T01:13:27.815Z,15.00
2018-07-07T01:15:57.889Z,14.90
2018-07-07T01:18:27.865Z,14.90
2018-07-07T01:20:57.811Z,14.90
2018-07-07T01:23:27.784Z,14.90
2018-07-07T01:25:57.724Z,14.80
2018-07-07T01:28:27.653Z,14.80
2018-07-07T01:30:57.597Z,14.80
2018-07-07T01:33:27.722Z,14.80
2018-07-07T01:35:57.679Z,14.90
2018-07-07T01:38:27.598Z,14.90
2018-07-07T01:40:57.567Z,15.00
2018-07-07T01:43:27.574Z,15.00
2018-07-07T01:45:57.514Z,15.00
2018-07-07T01:48:27.443Z,15.00
2018-07-07T01:53:26.947Z,15.00
2018-07-07T01:55:56.904Z,15.00
2018-07-07T01:58:26.843Z,15.00
2018-07-07T02:00:56.789Z,15.00
2018-07-07T02:03:26.720Z,15.00
2018-07-07T02:05:56.644Z,15.00
2018-07-07T02:08:26.604Z,15.00
2018-07-07T02:10:56.555Z,15.00
2018-07-07T02:13:26.472Z,15.10
2018-07-07T02:15:56.420Z,15.20
2018-07-07T02:18:26.375Z,15.30
2018-07-07T02:20:56.319Z,15.40
2018-07-07T02:23:26.247Z,15.40
2018-07-07T02:25:56.230Z,15.40
2018-07-07T02:28:26.168Z,15.40
2018-07-07T02:30:56.108Z,15.50
2018-07-07T02:33:26.028Z,15.50
2018-07-07T02:35:56.106Z,15.50
2018-07-07T02:38:26.035Z,15.50
2018-07-07T02:40:55.975Z,15.50
2018-07-07T02:43:25.907Z,15.40
2018-07-07T02:45:55.882Z,15.40
2018-07-07T02:48:25.829Z,15.40
2018-07-07T02:50:55.756Z,15.40
2018-07-07T02:53:25.693Z,15.40
2018-07-07T02:55:55.620Z,15.30
2018-07-07T02:58:25.552Z,15.30
2018-07-07T03:00:55.627Z,15.30
2018-07-07T03:03:25.678Z,15.20
2018-07-07T03:05:55.717Z,15.20
2018-07-07T03:08:25.640Z,15.20
2018-07-07T03:10:55.564Z,15.20
2018-07-07T03:13:25.504Z,15.20
2018-07-07T03:15:55.447Z,15.10
2018-07-07T03:18:25.388Z,15.20
2018-07-07T03:20:55.311Z,15.20
2018-07-07T03:23:25.257Z,15.20
2018-07-07T03:25:55.216Z,15.20
2018-07-07T03:28:25.152Z,15.20
2018-07-07T03:30:55.083Z,15.20
2018-07-07T03:33:25.020Z,15.20
2018-07-07T03:35:55.056Z,15.20
2018-07-07T03:38:24.988Z,15.10
2018-07-07T03:40:54.916Z,15.10
2018-07-07T03:43:24.848Z,15.00
2018-07-07T03:45:54.796Z,15.00
2018-07-07T03:48:24.739Z,14.90
2018-07-07T03:50:54.731Z,15.00
2018-07-07T03:53:24.854Z,14.90
2018-07-07T03:55:54.899Z,14.80
2018-07-07T03:58:24.831Z,14.80
2018-07-07T04:00:55.272Z,14.80
2018-07-07T04:03:25.246Z,14.80
2018-07-07T04:05:55.168Z,14.80
2018-07-07T04:08:25.108Z,14.90
2018-07-07T04:10:55.048Z,14.90
2018-07-07T04:13:24.992Z,15.00
2018-07-07T04:15:54.928Z,15.00
2018-07-07T04:18:28.067Z,15.00
2018-07-07T04:20:57.995Z,15.10
2018-07-07T04:23:27.948Z,15.20
2018-07-07T04:25:58.072Z,15.30
2018-07-07T04:28:28.611Z,15.40
2018-07-07T04:30:58.962Z,15.60
2018-07-07T04:33:29.180Z,15.70
2018-07-07T04:35:59.172Z,15.80
2018-07-07T04:38:29.103Z,15.90
2018-07-07T04:40:59.243Z,16.00
2018-07-07T04:43:29.215Z,16.10
2018-07-07T04:45:59.203Z,16.20
2018-07-07T04:48:29.088Z,16.40
2018-07-07T04:50:59.043Z,16.40
2018-07-07T04:53:28.979Z,16.50
2018-07-07T04:55:58.928Z,16.60
2018-07-07T04:58:28.970Z,16.60
2018-07-07T05:00:59.127Z,16.70
2018-07-07T05:03:29.074Z,16.80
2018-07-07T05:05:59.032Z,16.90
2018-07-07T05:08:28.971Z,17.00
2018-07-07T05:10:58.892Z,17.00
2018-07-07T05:13:28.931Z,17.10
2018-07-07T05:15:58.861Z,17.10
2018-07-07T05:18:28.871Z,17.10
2018-07-07T05:20:58.808Z,17.20
2018-07-07T05:23:28.743Z,17.30
2018-07-07T05:25:58.651Z,17.30
2018-07-07T05:28:28.598Z,17.40
2018-07-07T05:30:58.523Z,17.50
2018-07-07T05:33:28.472Z,17.50
2018-07-07T05:35:58.458Z,17.50
2018-07-07T05:38:28.768Z,17.60
2018-07-07T05:40:58.700Z,17.70
2018-07-07T05:43:28.645Z,17.80
2018-07-07T05:45:58.572Z,17.90
2018-07-07T05:48:28.515Z,18.00
2018-07-07T05:50:58.607Z,18.20
2018-07-07T05:53:28.609Z,18.30
2018-07-07T05:55:58.548Z,18.30
2018-07-07T05:58:28.484Z,18.40
2018-07-07T06:00:58.425Z,18.50
2018-07-07T06:03:28.382Z,18.60
2018-07-07T06:05:58.428Z,18.70
2018-07-07T06:08:28.363Z,18.80
2018-07-07T06:10:58.411Z,18.90
2018-07-07T06:13:28.352Z,18.90
2018-07-07T06:15:58.272Z,18.90
2018-07-07T06:18:28.211Z,18.90
2018-07-07T06:20:58.160Z,19.00
2018-07-07T06:23:28.187Z,19.00
2018-07-07T06:25:58.176Z,19.00
2018-07-07T06:28:28.148Z,19.10
2018-07-07T06:30:58.120Z,18.90
2018-07-07T06:33:28.064Z,19.00
2018-07-07T06:35:58.041Z,19.10
2018-07-07T06:38:28.067Z,19.20
2018-07-07T06:40:57.995Z,19.20
2018-07-07T06:43:27.944Z,19.20
2018-07-07T06:45:57.887Z,19.10
2018-07-07T06:48:27.839Z,19.20
2018-07-07T06:50:57.783Z,19.10
2018-07-07T06:53:27.720Z,19.20
2018-07-07T06:55:57.752Z,19.40
2018-07-07T06:58:27.708Z,19.40
2018-07-07T07:00:57.664Z,19.60
2018-07-07T07:03:27.708Z,19.60
2018-07-07T07:05:57.611Z,19.70
2018-07-07T07:08:27.596Z,19.70
2018-07-07T07:10:57.583Z,19.80
2018-07-07T07:13:27.520Z,19.80
2018-07-07T07:15:57.456Z,19.90
2018-07-07T07:18:27.604Z,20.00
2018-07-07T07:20:57.588Z,20.10
2018-07-07T07:23:27.595Z,20.10
2018-07-07T07:25:57.621Z,20.20
2018-07-07T07:28:27.705Z,20.20
2018-07-07T07:30:57.652Z,20.30
2018-07-07T07:33:27.579Z,20.30
2018-07-07T07:35:57.664Z,20.30
2018-07-07T07:38:27.775Z,20.40
2018-07-07T07:40:57.739Z,20.60
2018-07-07T07:43:27.692Z,20.80
2018-07-07T07:45:57.635Z,20.90
2018-07-07T07:48:27.734Z,21.00
2018-07-07T07:50:57.672Z,21.00
2018-07-07T07:53:27.611Z,21.10
2018-07-07T07:55:57.579Z,21.30
2018-07-07T07:58:27.651Z,21.40
2018-07-07T08:00:57.608Z,21.80
2018-07-07T08:03:27.560Z,22.20
2018-07-07T08:05:57.516Z,22.70
2018-07-07T08:08:27.651Z,22.80
2018-07-07T08:10:57.598Z,23.40
2018-07-07T08:13:27.536Z,23.60
2018-07-07T08:15:57.480Z,23.80
2018-07-07T08:18:27.719Z,23.80
2018-07-07T08:20:57.678Z,23.70
2018-07-07T08:23:27.720Z,23.60
2018-07-07T08:25:57.692Z,23.80
2018-07-07T08:28:27.750Z,24.30
2018-07-07T08:30:57.868Z,24.70
2018-07-07T08:33:27.819Z,24.40
2018-07-07T08:35:57.770Z,24.20
2018-07-07T08:38:27.941Z,24.20
2018-07-07T08:40:57.880Z,23.90
2018-07-07T08:43:28.840Z,24.00
2018-07-07T08:45:58.781Z,24.00
2018-07-07T08:48:28.989Z,24.20
2018-07-07T08:50:58.941Z,24.20
2018-07-07T08:53:28.968Z,24.30
2018-07-07T08:55:58.929Z,24.50
2018-07-07T08:58:29.356Z,24.40
2018-07-07T09:00:59.296Z,24.40
2018-07-07T09:03:29.248Z,24.40
2018-07-07T09:05:59.200Z,24.30
2018-07-07T09:08:29.547Z,24.40
2018-07-07T09:10:59.508Z,24.60
2018-07-07T09:13:29.452Z,24.70
2018-07-07T09:15:59.385Z,24.70
2018-07-07T09:18:29.663Z,24.80
2018-07-07T09:20:59.613Z,25.00
2018-07-07T09:23:29.551Z,25.10
2018-07-07T09:25:59.510Z,25.20
2018-07-07T09:28:30.100Z,25.20
2018-07-07T09:31:00.180Z,25.20
2018-07-07T09:33:30.092Z,25.10
2018-07-07T09:36:00.060Z,25.20
2018-07-07T09:38:30.404Z,25.10
2018-07-07T09:41:00.348Z,25.20
2018-07-07T09:43:30.309Z,25.10
2018-07-07T09:46:00.288Z,25.20
2018-07-07T09:48:30.380Z,25.50
2018-07-07T09:51:00.308Z,25.60
2018-07-07T09:53:30.249Z,25.80
2018-07-07T09:56:00.199Z,25.90
2018-07-07T09:58:30.540Z,25.90
2018-07-07T10:01:00.492Z,25.80
2018-07-07T10:03:30.448Z,25.70
2018-07-07T10:06:00.389Z,25.80
2018-07-07T10:08:30.632Z,25.90
2018-07-07T10:13:30.214Z,26.10
2018-07-07T10:16:00.088Z,26.00
2018-07-07T10:18:30.094Z,26.30
2018-07-07T10:21:00.107Z,26.60
2018-07-07T10:23:30.040Z,26.80
2018-07-07T10:26:00.011Z,26.80
2018-07-07T10:28:30.493Z,26.90
2018-07-07T10:33:30.093Z,26.80
2018-07-07T10:36:00.061Z,26.80
2018-07-07T10:38:30.818Z,27.00
2018-07-07T10:41:00.876Z,27.10
2018-07-07T10:43:30.934Z,27.20
2018-07-07T10:46:00.955Z,26.70
2018-07-07T10:48:31.267Z,27.00
2018-07-07T10:51:01.204Z,26.50
2018-07-07T10:53:31.184Z,26.80
2018-07-07T10:56:01.167Z,26.90
2018-07-07T10:58:31.488Z,27.10
2018-07-07T11:01:01.449Z,27.30
2018-07-07T11:03:31.503Z,27.10
2018-07-07T11:06:01.398Z,27.10
2018-07-07T11:08:31.722Z,27.20
2018-07-07T11:11:01.664Z,27.10
2018-07-07T11:13:31.606Z,27.30
2018-07-07T11:16:01.561Z,27.50
2018-07-07T11:18:31.651Z,27.60
2018-07-07T11:23:31.296Z,27.70
2018-07-07T11:26:01.236Z,27.70
2018-07-07T11:28:31.598Z,27.80
2018-07-07T11:31:01.560Z,28.10
2018-07-07T11:33:31.512Z,27.90
2018-07-07T11:36:01.527Z,27.90
2018-07-07T11:38:31.780Z,27.80
2018-07-07T11:41:01.728Z,27.80
2018-07-07T11:43:31.671Z,28.00
2018-07-07T11:46:01.621Z,28.20
2018-07-07T11:48:31.732Z,28.30
2018-07-07T11:51:01.686Z,27.90
2018-07-07T11:53:31.632Z,27.60
2018-07-07T11:56:01.815Z,27.20
2018-07-07T11:58:31.967Z,27.20
2018-07-07T12:01:01.892Z,27.40
2018-07-07T12:03:31.908Z,27.50
2018-07-07T12:06:01.837Z,27.80
2018-07-07T12:08:32.114Z,28.20
2018-07-07T12:11:02.017Z,28.40
2018-07-07T12:13:31.965Z,28.70
2018-07-07T12:16:01.913Z,28.80
2018-07-07T12:18:32.192Z,28.90
2018-07-07T12:21:02.125Z,29.00
2018-07-07T12:23:32.096Z,29.10
2018-07-07T12:26:02.049Z,29.00
2018-07-07T12:28:32.260Z,29.20
2018-07-07T12:31:02.404Z,29.20
2018-07-07T12:33:32.339Z,29.10
2018-07-07T12:36:02.428Z,29.00
2018-07-07T12:38:32.592Z,28.90
2018-07-07T12:41:02.546Z,29.30
2018-07-07T12:43:32.568Z,29.50
2018-07-07T12:46:02.452Z,29.70
2018-07-07T12:48:32.940Z,29.70
2018-07-07T12:51:03.133Z,28.80
2018-07-07T12:53:33.073Z,28.50
2018-07-07T12:56:03.016Z,28.70
2018-07-07T12:58:33.056Z,29.00
2018-07-07T13:01:03.008Z,29.30
2018-07-07T13:03:32.945Z,29.20
2018-07-07T13:06:03.068Z,29.10
2018-07-07T13:08:33.264Z,28.70
2018-07-07T13:11:03.207Z,28.70
2018-07-07T13:13:33.215Z,28.50
2018-07-07T13:16:03.234Z,28.50
2018-07-07T13:18:33.396Z,28.20
2018-07-07T13:21:03.352Z,28.40
2018-07-07T13:23:33.285Z,29.00
2018-07-07T13:26:03.248Z,29.50
2018-07-07T13:28:33.383Z,29.90
2018-07-07T13:31:03.388Z,30.10
2018-07-07T13:33:33.315Z,29.70
2018-07-07T13:36:03.253Z,29.20
2018-07-07T13:38:37.227Z,29.10
2018-07-07T13:41:10.918Z,29.30
2018-07-07T13:43:41.219Z,29.60
2018-07-07T13:46:11.461Z,29.80
2018-07-07T13:48:42.013Z,29.60
2018-07-07T13:51:12.163Z,29.20
2018-07-07T13:53:42.112Z,28.90
2018-07-07T13:56:12.971Z,29.10
2018-07-07T13:58:42.908Z,28.80
2018-07-07T14:01:12.859Z,28.60
2018-07-07T14:03:42.801Z,28.40
2018-07-07T14:06:12.800Z,28.10
2018-07-07T14:08:42.764Z,27.80
2018-07-07T14:11:12.752Z,27.80
2018-07-07T14:13:42.799Z,27.70
2018-07-07T14:16:12.740Z,27.70
2018-07-07T14:18:42.680Z,27.80
2018-07-07T14:21:12.640Z,27.90
2018-07-07T14:26:12.171Z,27.80
2018-07-07T14:28:42.152Z,28.00
2018-07-07T14:31:12.721Z,28.00
2018-07-07T14:33:42.707Z,28.20
2018-07-07T14:36:12.764Z,28.20
2018-07-07T14:38:43.650Z,28.20
2018-07-07T14:41:19.232Z,28.60
2018-07-07T14:44:12.559Z,29.00
2018-07-07T14:46:42.501Z,29.30
2018-07-07T14:49:12.431Z,29.60
2018-07-07T14:51:42.392Z,29.90
2018-07-07T14:54:12.328Z,30.00
2018-07-07T14:56:48.608Z,30.30
2018-07-07T14:59:18.579Z,30.50
2018-07-07T15:01:48.515Z,30.60
2018-07-07T15:04:18.451Z,30.70
2018-07-07T15:06:48.395Z,30.80
2018-07-07T15:09:18.331Z,31.20
2018-07-07T15:11:48.283Z,30.90
2018-07-07T15:14:18.210Z,30.50
2018-07-07T15:16:48.160Z,30.20
2018-07-07T15:19:18.091Z,29.90
2018-07-07T15:21:48.043Z,29.60
2018-07-07T15:24:17.967Z,29.40
2018-07-07T15:26:47.908Z,29.20
2018-07-07T15:31:47.515Z,28.70
2018-07-07T15:34:17.522Z,28.60
2018-07-07T15:36:47.403Z,28.50
2018-07-07T15:39:17.348Z,28.40
2018-07-07T15:41:47.573Z,28.40
2018-07-07T15:44:17.536Z,28.40
2018-07-07T15:46:47.479Z,28.40
2018-07-07T15:49:17.420Z,28.40
2018-07-07T15:51:47.550Z,28.20
2018-07-07T15:54:17.817Z,28.20
2018-07-07T15:56:47.846Z,28.20
2018-07-07T15:59:17.895Z,28.10
2018-07-07T16:01:47.820Z,28.30
2018-07-07T16:04:17.759Z,28.70
2018-07-07T16:06:47.716Z,28.60
2018-07-07T16:09:17.718Z,28.60
2018-07-07T16:11:47.658Z,28.50
2018-07-07T16:14:17.599Z,28.40
2018-07-07T16:19:17.216Z,28.20
2018-07-07T16:21:47.305Z,28.00
2018-07-07T16:24:17.241Z,27.90
2018-07-07T16:26:47.164Z,27.80
2018-07-07T16:29:17.103Z,28.10
2018-07-07T16:31:47.050Z,28.40
2018-07-07T16:34:17.079Z,28.60
2018-07-07T16:36:47.003Z,28.80
2018-07-07T16:39:16.963Z,28.90
2018-07-07T16:41:46.900Z,28.60
2018-07-07T16:44:16.872Z,28.70
2018-07-07T16:46:47.984Z,29.20
2018-07-07T16:49:18.128Z,29.70
2018-07-07T16:51:48.951Z,30.20
2018-07-07T16:54:19.767Z,30.20
2018-07-07T16:56:49.708Z,30.10
2018-07-07T16:59:19.739Z,30.10
2018-07-07T17:01:51.141Z,29.90
2018-07-07T17:04:21.336Z,29.80
2018-07-07T17:06:51.423Z,30.00
2018-07-07T17:09:21.372Z,30.00
2018-07-07T17:11:52.630Z,30.20
2018-07-07T17:14:23.513Z,30.30
2018-07-07T17:16:53.509Z,30.50
2018-07-07T17:19:23.435Z,30.30
2018-07-07T17:21:53.560Z,30.40
2018-07-07T17:24:24.303Z,30.40
2018-07-07T17:26:54.239Z,29.80
2018-07-07T17:29:24.195Z,29.40
2018-07-07T17:31:54.120Z,28.50
2018-07-07T17:34:24.480Z,28.10
2018-07-07T17:36:54.537Z,27.70
2018-07-07T17:39:24.471Z,27.50
2018-07-07T17:41:54.403Z,27.20
2018-07-07T17:44:24.365Z,27.00
2018-07-07T17:46:54.313Z,26.90
2018-07-07T17:49:24.412Z,26.90
2018-07-07T17:51:54.324Z,26.90
2018-07-07T17:54:24.351Z,26.80
2018-07-07T17:56:54.363Z,26.70
2018-07-07T17:59:24.316Z,26.60
2018-07-07T18:01:54.583Z,26.60
2018-07-07T18:04:24.545Z,26.40
2018-07-07T18:06:54.608Z,26.20
2018-07-07T18:09:24.568Z,26.10
2018-07-07T18:11:54.514Z,26.00
2018-07-07T18:14:24.448Z,25.90
2018-07-07T18:16:54.392Z,25.80
2018-07-07T18:19:24.341Z,25.60
2018-07-07T18:21:54.594Z,25.40
2018-07-07T18:24:24.647Z,25.30
2018-07-07T18:26:54.782Z,25.10
2018-07-07T18:29:24.769Z,25.00
2018-07-07T18:31:54.850Z,24.90
2018-07-07T18:34:25.483Z,24.70
2018-07-07T18:36:55.624Z,24.60
2018-07-07T18:39:25.635Z,24.50
2018-07-07T18:41:55.796Z,24.40
2018-07-07T18:44:25.895Z,24.20
2018-07-07T18:46:55.936Z,24.10
2018-07-07T18:49:25.990Z,23.90
2018-07-07T18:51:55.982Z,23.70
2018-07-07T18:54:25.944Z,23.50
2018-07-07T18:56:55.904Z,23.40
2018-07-07T18:59:25.898Z,23.20
2018-07-07T19:01:55.879Z,23.00
2018-07-07T19:04:25.803Z,22.70
2018-07-07T19:06:55.763Z,22.50
2018-07-07T19:09:26.876Z,22.40
2018-07-07T19:11:56.952Z,22.20
2018-07-07T19:14:26.887Z,21.90
2018-07-07T19:16:57.044Z,21.70
2018-07-07T19:19:27.002Z,21.50
2018-07-07T19:22:02.432Z,21.40
2018-07-07T19:25:35.387Z,21.20
2018-07-07T19:28:05.737Z,21.10
2018-07-07T19:30:35.704Z,20.90
2018-07-07T19:33:11.281Z,20.70
2018-07-07T19:35:49.785Z,20.60
2018-07-07T19:38:21.116Z,20.40
2018-07-07T19:40:51.402Z,20.30
2018-07-07T19:43:21.509Z,20.10
2018-07-07T19:45:51.575Z,20.00
2018-07-07T19:48:21.819Z,19.90
2018-07-07T19:50:51.932Z,19.80
2018-07-07T19:53:21.880Z,19.70
2018-07-07T19:55:51.868Z,19.60
2018-07-07T19:58:22.073Z,19.50
2018-07-07T20:00:52.006Z,19.40
2018-07-07T20:03:21.932Z,19.30
2018-07-07T20:05:51.862Z,19.20
2018-07-07T20:08:21.885Z,19.10
2018-07-07T20:10:51.836Z,19.00
2018-07-07T20:13:21.825Z,18.90
2018-07-07T20:16:18.215Z,18.90
2018-07-07T20:22:01.654Z,18.70
2018-07-07T20:24:38.126Z,18.60
2018-07-07T20:27:14.116Z,18.60
2018-07-07T20:29:44.041Z,18.50
2018-07-07T20:32:21.236Z,18.50
2018-07-07T20:34:51.184Z,18.40
2018-07-07T20:37:21.132Z,18.30
2018-07-07T20:39:51.056Z,18.20
2018-07-07T20:42:20.987Z,18.10
2018-07-07T20:44:50.900Z,18.10
2018-07-07T20:47:20.845Z,18.10
2018-07-07T20:49:50.824Z,18.10
2018-07-07T20:52:20.892Z,18.00
2018-07-07T20:54:50.825Z,18.00
2018-07-07T20:57:20.821Z,18.00
2018-07-07T20:59:50.772Z,18.00
2018-07-07T21:02:20.716Z,18.00
2018-07-07T21:04:50.652Z,18.00
2018-07-07T21:07:20.617Z,18.00
2018-07-07T21:09:50.556Z,18.10
2018-07-07T21:12:20.511Z,18.10
2018-07-07T21:14:50.447Z,18.00
2018-07-07T21:17:20.391Z,18.00
2018-07-07T21:19:50.323Z,18.00
2018-07-07T21:22:20.428Z,18.00
2018-07-07T21:24:50.344Z,18.00
2018-07-07T21:27:20.283Z,18.00
2018-07-07T21:29:50.203Z,17.90
2018-07-07T21:32:20.140Z,17.90
2018-07-07T21:34:50.119Z,17.80
2018-07-07T21:37:20.068Z,17.80
2018-07-07T21:39:49.997Z,17.70
2018-07-07T21:42:20.018Z,17.60
2018-07-07T21:44:49.940Z,17.60
2018-07-07T21:47:19.885Z,17.50
2018-07-07T21:49:49.861Z,17.40
2018-07-07T21:52:19.805Z,17.30
2018-07-07T21:54:49.760Z,17.20
2018-07-07T21:57:25.140Z,17.20
2018-07-07T21:59:55.075Z,17.10
2018-07-07T22:02:30.244Z,17.10
2018-07-07T22:05:37.217Z,17.00
2018-07-07T22:08:12.480Z,17.10
2018-07-07T22:10:43.583Z,17.00
2018-07-07T22:13:13.481Z,17.00
2018-07-07T22:15:43.409Z,17.00
2018-07-07T22:18:13.339Z,16.90
2018-07-07T22:20:58.957Z,16.90
2018-07-07T22:23:29.048Z,16.90
2018-07-07T22:25:58.975Z,16.90
2018-07-07T22:28:28.907Z,16.80
2018-07-07T22:30:58.836Z,16.70
2018-07-07T22:33:28.882Z,16.70
2018-07-07T22:36:04.124Z,16.60
2018-07-07T22:38:40.011Z,16.60
2018-07-07T22:41:09.883Z,16.50
2018-07-07T22:43:39.964Z,16.40
2018-07-07T22:46:09.915Z,16.40
2018-07-07T22:48:40.108Z,16.40
2018-07-07T22:51:10.055Z,16.30
2018-07-07T22:53:40.010Z,16.30
2018-07-07T22:56:10.211Z,16.20
2018-07-07T22:58:40.404Z,16.20
2018-07-07T23:01:10.852Z,16.10
2018-07-07T23:06:18.655Z,16.00
2018-07-07T23:08:48.604Z,15.90
2018-07-07T23:11:18.536Z,15.90
2018-07-07T23:13:48.501Z,15.90
2018-07-07T23:16:18.435Z,15.80
2018-07-07T23:18:48.375Z,15.80
2018-07-07T23:21:18.315Z,15.80
2018-07-07T23:23:48.280Z,15.70
2018-07-07T23:26:18.215Z,15.70
2018-07-07T23:28:48.327Z,15.60
2018-07-07T23:31:18.264Z,15.60
2018-07-07T23:33:48.319Z,15.60
2018-07-07T23:36:18.245Z,15.60
2018-07-07T23:38:48.188Z,15.60
2018-07-07T23:41:18.138Z,15.50
2018-07-07T23:43:48.134Z,15.50
2018-07-07T23:46:18.021Z,15.50
2018-07-07T23:48:48.197Z,15.40
2018-07-07T23:51:18.131Z,15.40
2018-07-07T23:53:48.064Z,15.40
2018-07-07T23:56:17.996Z,15.40
2018-07-07T23:58:48.176Z,15.40
